Ship Status Report: callsign WAM8729

sailwx.info

Track history (hours):
 
Tides and Currents Weather Stations Pressure Air Temp Water Temp Dewpoint Dewpoint Depression Visibility Wind Speed Wind Dir Waves Ship Positions

Callsign WAM8729 (name unknown)

Owner: REGENTS OF THE UNIVERSITY OF CALIFORNIA, OAKLAND, CA. More information available from US FCC via Universal Licensing System and Coast Guard Vessel Documentation Center.

Last reported at 2018-Jul-20 23:12 UTC. Time now 2018-Jul-22 04:43 UTC.
Position N 34°24' W 119°51'.

Length 7 m.

Type: Diving. MMSI: 338140283.

Date/timePositionNaut miles runAvg speedWind from/ knotsBaromVisibWave heightAir tempDewpointWater temp
2018-Jul-20 23:12N 34°24' W 119°51'6 5.4
2018-Jul-20 22:02N 34°23' W 119°43'110.4
2018-Jul-20 22:00N 34°24' W 119°44'1420.5
2018-Jul-20 21:20N 34°26' W 119°60'823.0
2018-Jul-20 21:00N 34°28' W 120°09'612.0
2018-Jul-20 20:30N 34°28' W 120°16'0 0.0
2018-Jul-20 20:00N 34°28' W 120°16'21856.9
2018-Jul-20 19:58N 34°24' W 119°51'2143.7
2018-Jul-20 19:29N 34°28' W 120°16'21374.6
2018-Jul-20 19:25N 34°24' W 119°51'2560.0
2018-Jul-20 19:00N 34°27' W 120°21'24129.9
2018-Jul-20 18:49N 34°24' W 119°52'0 0.0
2018-Jul-20 18:25N 34°24' W 119°52'25559.7
2018-Jul-20 18:22N 34°27' W 120°22'0 0.0
2018-Jul-20 17:58N 34°27' W 120°22'25157.4
2018-Jul-20 17:49N 34°24' W 119°52'2571.4
2018-Jul-20 17:28N 34°27' W 120°22'25232.1
2018-Jul-20 17:22N 34°24' W 119°52'2568.0
2018-Jul-20 17:00N 34°27' W 120°22'24102.7
2018-Jul-20 16:46N 34°24' W 119°52'0 0.0
2018-Jul-20 16:28N 34°24' W 119°52'252533.4
2018-Jul-20 16:27N 34°27' W 120°22'920.6
2018-Jul-20 16:00N 34°27' W 120°11'1564.3
2018-Jul-20 15:46N 34°24' W 119°52'312.2
2018-Jul-20 15:30N 34°25' W 119°56'320.8
2018-Jul-20 15:20N 34°24' W 119°52'824.5
2018-Jul-20 15:00N 34°23' W 119°42'4 7.3
2018-Jul-20 14:25N 34°26' W 119°46'4 0.3
2018-Jul-19 21:57N 34°24' W 119°51'8 8.8
2018-Jul-19 21:06N 34°24' W 119°42'738.9
2018-Jul-19 20:55N 34°24' W 119°51'851.8
2018-Jul-19 20:46N 34°24' W 119°41'618.9
2018-Jul-19 20:27N 34°24' W 119°34'13151.6
2018-Jul-19 20:22N 34°25' W 119°50'1537.5
2018-Jul-19 19:59N 34°23' W 119°32'14208.5
2018-Jul-19 19:55N 34°24' W 119°49'1227.0
2018-Jul-19 19:27N 34°11' W 119°47'812.9
2018-Jul-19 18:50N 34°04' W 119°45'0 0.2
2018-Jul-19 18:30N 34°04' W 119°45'23 8.0
2018-Jul-19 15:41N 34°23' W 119°32'19174.3
2018-Jul-19 15:34N 34°09' W 119°48'226.9
2018-Jul-19 15:29N 34°12' W 119°48'14189.9
2018-Jul-19 15:24N 34°24' W 119°39'10 0.6
2018-Jul-18 22:11N 34°24' W 119°51'417.3
2018-Jul-18 21:57N 34°27' W 119°46'510.7
2018-Jul-18 21:30N 34°25' W 119°41'712.9
2018-Jul-18 20:58N 34°24' W 119°33'0 0.9
2018-Jul-18 20:30N 34°23' W 119°32'0 0.1
2018-Jul-18 19:46N 34°23' W 119°32'0 0.1
2018-Jul-18 19:14N 34°23' W 119°32'0 0.0
2018-Jul-18 18:59N 34°23' W 119°32'0 0.1
2018-Jul-18 18:30N 34°23' W 119°32'15296.7
2018-Jul-18 18:27N 34°24' W 119°51'0 0.0
2018-Jul-18 17:54N 34°24' W 119°51'1567.2
2018-Jul-18 17:41N 34°23' W 119°33'1456.2
2018-Jul-18 17:26N 34°25' W 119°50'1 2.0
2018-Jul-18 16:56N 34°24' W 119°50'1556.4
2018-Jul-18 16:41N 34°23' W 119°33'1531.5
2018-Jul-18 16:13N 34°24' W 119°50'15425.8
2018-Jul-18 16:11N 34°23' W 119°33'18104.1
2018-Jul-18 16:00N 34°25' W 119°54'1855.2
2018-Jul-18 15:41N 34°23' W 119°33'311.8
2018-Jul-18 15:28N 34°24' W 119°36'12309.0
2018-Jul-18 15:25N 34°25' W 119°50'0 0.4
2018-Jul-18 14:48N 34°25' W 119°50'1 0.1
2018-Jul-17 23:02N 34°24' W 119°51'1 0.8
2018-Jul-17 21:57N 34°25' W 119°50'1 0.5
2018-Jul-17 20:20N 34°24' W 119°51'1 1.7
2018-Jul-17 19:53N 34°25' W 119°50'1 1.1
2018-Jul-17 19:17N 34°25' W 119°49'311.3
2018-Jul-17 18:59N 34°24' W 119°45'4 2.4
2018-Jul-17 17:29N 34°25' W 119°50'0 0.4
2018-Jul-17 16:39N 34°25' W 119°50'5 3.8
2018-Jul-17 15:17N 34°24' W 119°44'517.6
2018-Jul-17 15:00N 34°25' W 119°50'1 0.1
2018-Jul-16 22:30N 34°24' W 119°51'0 0.1
2018-Jul-16 21:36N 34°24' W 119°51'1 6.3
2018-Jul-16 21:28N 34°25' W 119°50'6 3.2
2018-Jul-16 19:34N 34°25' W 119°57'0 0.0
2018-Jul-16 19:20N 34°25' W 119°57'0 0.0
2018-Jul-16 18:56N 34°25' W 119°57'0 0.0
2018-Jul-16 18:23N 34°25' W 119°57'0 0.0
2018-Jul-16 17:53N 34°25' W 119°57'0 0.0
2018-Jul-16 16:16N 34°25' W 119°57'0 0.0
2018-Jul-16 15:32N 34°25' W 119°57'0 0.1
2018-Jul-16 15:29N 34°25' W 119°57'611.6
2018-Jul-16 14:58N 34°25' W 119°50'  
2018-Jul-13 23:41N 34°24' W 119°51'0 0.0
2018-Jul-13 23:20N 34°24' W 119°51'823.8
2018-Jul-13 23:01N 34°25' W 119°42'1925.7
2018-Jul-13 22:16N 34°17' W 119°20'412.4
2018-Jul-13 21:55N 34°15' W 119°16'817.2
2018-Jul-13 21:26N 34°07' W 119°19'615.3
2018-Jul-13 21:00N 34°01' W 119°22'0 0.0
2018-Jul-13 20:04N 34°01' W 119°22'0 0.1
2018-Jul-13 19:43N 34°01' W 119°22'0 0.1
2018-Jul-13 19:19N 34°01' W 119°22'0 0.0
2018-Jul-13 18:58N 34°01' W 119°22'0 0.0
2018-Jul-13 18:29N 34°01' W 119°22'0 0.0
2018-Jul-13 17:53N 34°01' W 119°22'0 0.4
2018-Jul-13 17:30N 34°01' W 119°22'0 0.0
2018-Jul-13 17:00N 34°01' W 119°22'0 0.0
2018-Jul-13 16:29N 34°01' W 119°22'0 0.0
2018-Jul-13 15:59N 34°01' W 119°22'1 1.8
2018-Jul-13 15:30N 34°02' W 119°21'1221.2
2018-Jul-13 14:57N 34°13' W 119°17'3 5.5
2018-Jul-13 14:30N 34°15' W 119°16'30 1.8
2018-Jul-12 21:19N 34°24' W 119°51'8 6.9
2018-Jul-12 20:14N 34°24' W 119°42'2 9.7
2018-Jul-12 20:00N 34°23' W 119°39'4 7.0
2018-Jul-12 19:27N 34°20' W 119°37'0 0.0
2018-Jul-12 19:00N 34°20' W 119°37'0 0.1
2018-Jul-12 18:06N 34°20' W 119°37'0 0.6
2018-Jul-12 17:56N 34°20' W 119°37'0 0.1
2018-Jul-12 17:30N 34°20' W 119°37'0 0.1
2018-Jul-12 17:00N 34°20' W 119°37'0 0.1
2018-Jul-12 16:22N 34°20' W 119°37'0 0.2
2018-Jul-12 15:53N 34°20' W 119°37'614.4
2018-Jul-12 15:29N 34°25' W 119°41'918.9
2018-Jul-12 15:00N 34°26' W 119°52'2 0.1
2018-Jul-11 23:11N 34°24' W 119°51'8 7.9
2018-Jul-11 22:14N 34°24' W 119°42'2 6.3
2018-Jul-11 21:54N 34°25' W 119°39'612.7
2018-Jul-11 21:28N 34°23' W 119°32'0 0.0
2018-Jul-11 20:56N 34°23' W 119°32'0 0.0
2018-Jul-11 20:26N 34°23' W 119°32'0 0.0
2018-Jul-11 19:31N 34°23' W 119°32'0 0.1
2018-Jul-11 19:26N 34°23' W 119°32'0 0.4
2018-Jul-11 18:53N 34°24' W 119°33'1538.3
2018-Jul-11 18:29N 34°24' W 119°51'155931.2
2018-Jul-11 18:29N 34°24' W 119°33'0 0.0
2018-Jul-11 17:53N 34°24' W 119°33'15182.8
2018-Jul-11 17:48N 34°24' W 119°51'1 2.2
2018-Jul-11 17:25N 34°25' W 119°50'14236.1
2018-Jul-11 17:21N 34°24' W 119°33'1643.9
2018-Jul-11 16:59N 34°24' W 119°52'165866.7
2018-Jul-11 16:59N 34°24' W 119°33'0 0.0
2018-Jul-11 16:28N 34°24' W 119°33'14314.0
2018-Jul-11 16:25N 34°25' W 119°50'717.1
2018-Jul-11 16:01N 34°24' W 119°41'7191.7
2018-Jul-11 15:58N 34°25' W 119°50'0 0.7
2018-Jul-11 15:28N 34°25' W 119°50'  
Track history (hours):
 
Tides and Currents Weather Stations Pressure Air Temp Water Temp Dewpoint Dewpoint Depression Visibility Wind Speed Wind Dir Waves Ship Positions

Callsign WAM8729 (name unknown)

Owner: REGENTS OF THE UNIVERSITY OF CALIFORNIA, OAKLAND, CA. More information available from US FCC via Universal Licensing System and Coast Guard Vessel Documentation Center.

Last reported at 2018-Jul-20 23:12 UTC. Time now 2018-Jul-22 04:43 UTC.
Position N 34°24' W 119°51'.

Length 7 m.

Type: Diving. MMSI: 338140283.

Date/timePositionNaut miles runAvg speedWind from/ knotsBaromVisibWave heightAir tempDewpointWater temp
2018-Jul-20 23:12N 34°24' W 119°51'6 5.4
2018-Jul-20 22:02N 34°23' W 119°43'110.4
2018-Jul-20 22:00N 34°24' W 119°44'1420.5
2018-Jul-20 21:20N 34°26' W 119°60'823.0
2018-Jul-20 21:00N 34°28' W 120°09'612.0
2018-Jul-20 20:30N 34°28' W 120°16'0 0.0
2018-Jul-20 20:00N 34°28' W 120°16'21856.9
2018-Jul-20 19:58N 34°24' W 119°51'2143.7
2018-Jul-20 19:29N 34°28' W 120°16'21374.6
2018-Jul-20 19:25N 34°24' W 119°51'2560.0
2018-Jul-20 19:00N 34°27' W 120°21'24129.9
2018-Jul-20 18:49N 34°24' W 119°52'0 0.0
2018-Jul-20 18:25N 34°24' W 119°52'25559.7
2018-Jul-20 18:22N 34°27' W 120°22'0 0.0
2018-Jul-20 17:58N 34°27' W 120°22'25157.4
2018-Jul-20 17:49N 34°24' W 119°52'2571.4
2018-Jul-20 17:28N 34°27' W 120°22'25232.1
2018-Jul-20 17:22N 34°24' W 119°52'2568.0
2018-Jul-20 17:00N 34°27' W 120°22'24102.7
2018-Jul-20 16:46N 34°24' W 119°52'0 0.0
2018-Jul-20 16:28N 34°24' W 119°52'252533.4
2018-Jul-20 16:27N 34°27' W 120°22'920.6
2018-Jul-20 16:00N 34°27' W 120°11'1564.3
2018-Jul-20 15:46N 34°24' W 119°52'312.2
2018-Jul-20 15:30N 34°25' W 119°56'320.8
2018-Jul-20 15:20N 34°24' W 119°52'824.5
2018-Jul-20 15:00N 34°23' W 119°42'4 7.3
2018-Jul-20 14:25N 34°26' W 119°46'4 0.3
2018-Jul-19 21:57N 34°24' W 119°51'8 8.8
2018-Jul-19 21:06N 34°24' W 119°42'738.9
2018-Jul-19 20:55N 34°24' W 119°51'851.8
2018-Jul-19 20:46N 34°24' W 119°41'618.9
2018-Jul-19 20:27N 34°24' W 119°34'13151.6
2018-Jul-19 20:22N 34°25' W 119°50'1537.5
2018-Jul-19 19:59N 34°23' W 119°32'14208.5
2018-Jul-19 19:55N 34°24' W 119°49'1227.0
2018-Jul-19 19:27N 34°11' W 119°47'812.9
2018-Jul-19 18:50N 34°04' W 119°45'0 0.2
2018-Jul-19 18:30N 34°04' W 119°45'23 8.0
2018-Jul-19 15:41N 34°23' W 119°32'19174.3
2018-Jul-19 15:34N 34°09' W 119°48'226.9
2018-Jul-19 15:29N 34°12' W 119°48'14189.9
2018-Jul-19 15:24N 34°24' W 119°39'10 0.6
2018-Jul-18 22:11N 34°24' W 119°51'417.3
2018-Jul-18 21:57N 34°27' W 119°46'510.7
2018-Jul-18 21:30N 34°25' W 119°41'712.9
2018-Jul-18 20:58N 34°24' W 119°33'0 0.9
2018-Jul-18 20:30N 34°23' W 119°32'0 0.1
2018-Jul-18 19:46N 34°23' W 119°32'0 0.1
2018-Jul-18 19:14N 34°23' W 119°32'0 0.0
2018-Jul-18 18:59N 34°23' W 119°32'0 0.1
2018-Jul-18 18:30N 34°23' W 119°32'15296.7
2018-Jul-18 18:27N 34°24' W 119°51'0 0.0
2018-Jul-18 17:54N 34°24' W 119°51'1567.2
2018-Jul-18 17:41N 34°23' W 119°33'1456.2
2018-Jul-18 17:26N 34°25' W 119°50'1 2.0
2018-Jul-18 16:56N 34°24' W 119°50'1556.4
2018-Jul-18 16:41N 34°23' W 119°33'1531.5
2018-Jul-18 16:13N 34°24' W 119°50'15425.8
2018-Jul-18 16:11N 34°23' W 119°33'18104.1
2018-Jul-18 16:00N 34°25' W 119°54'1855.2
2018-Jul-18 15:41N 34°23' W 119°33'311.8
2018-Jul-18 15:28N 34°24' W 119°36'12309.0
2018-Jul-18 15:25N 34°25' W 119°50'0 0.4
2018-Jul-18 14:48N 34°25' W 119°50'1 0.1
2018-Jul-17 23:02N 34°24' W 119°51'1 0.8
2018-Jul-17 21:57N 34°25' W 119°50'1 0.5
2018-Jul-17 20:20N 34°24' W 119°51'1 1.7
2018-Jul-17 19:53N 34°25' W 119°50'1 1.1
2018-Jul-17 19:17N 34°25' W 119°49'311.3
2018-Jul-17 18:59N 34°24' W 119°45'4 2.4
2018-Jul-17 17:29N 34°25' W 119°50'0 0.4
2018-Jul-17 16:39N 34°25' W 119°50'5 3.8
2018-Jul-17 15:17N 34°24' W 119°44'517.6
2018-Jul-17 15:00N 34°25' W 119°50'1 0.1
2018-Jul-16 22:30N 34°24' W 119°51'0 0.1
2018-Jul-16 21:36N 34°24' W 119°51'1 6.3
2018-Jul-16 21:28N 34°25' W 119°50'6 3.2
2018-Jul-16 19:34N 34°25' W 119°57'0 0.0
2018-Jul-16 19:20N 34°25' W 119°57'0 0.0
2018-Jul-16 18:56N 34°25' W 119°57'0 0.0
2018-Jul-16 18:23N 34°25' W 119°57'0 0.0
2018-Jul-16 17:53N 34°25' W 119°57'0 0.0
2018-Jul-16 16:16N 34°25' W 119°57'0 0.0
2018-Jul-16 15:32N 34°25' W 119°57'0 0.1
2018-Jul-16 15:29N 34°25' W 119°57'611.6
2018-Jul-16 14:58N 34°25' W 119°50'  
2018-Jul-13 23:41N 34°24' W 119°51'0 0.0
2018-Jul-13 23:20N 34°24' W 119°51'823.8
2018-Jul-13 23:01N 34°25' W 119°42'1925.7
2018-Jul-13 22:16N 34°17' W 119°20'412.4
2018-Jul-13 21:55N 34°15' W 119°16'817.2
2018-Jul-13 21:26N 34°07' W 119°19'615.3
2018-Jul-13 21:00N 34°01' W 119°22'0 0.0
2018-Jul-13 20:04N 34°01' W 119°22'0 0.1
2018-Jul-13 19:43N 34°01' W 119°22'0 0.1
2018-Jul-13 19:19N 34°01' W 119°22'0 0.0
2018-Jul-13 18:58N 34°01' W 119°22'0 0.0
2018-Jul-13 18:29N 34°01' W 119°22'0 0.0
2018-Jul-13 17:53N 34°01' W 119°22'0 0.4
2018-Jul-13 17:30N 34°01' W 119°22'0 0.0
2018-Jul-13 17:00N 34°01' W 119°22'0 0.0
2018-Jul-13 16:29N 34°01' W 119°22'0 0.0
2018-Jul-13 15:59N 34°01' W 119°22'1 1.8
2018-Jul-13 15:30N 34°02' W 119°21'1221.2
2018-Jul-13 14:57N 34°13' W 119°17'3 5.5
2018-Jul-13 14:30N 34°15' W 119°16'30 1.8
2018-Jul-12 21:19N 34°24' W 119°51'8 6.9
2018-Jul-12 20:14N 34°24' W 119°42'2 9.7
2018-Jul-12 20:00N 34°23' W 119°39'4 7.0
2018-Jul-12 19:27N 34°20' W 119°37'0 0.0
2018-Jul-12 19:00N 34°20' W 119°37'0 0.1
2018-Jul-12 18:06N 34°20' W 119°37'0 0.6
2018-Jul-12 17:56N 34°20' W 119°37'0 0.1
2018-Jul-12 17:30N 34°20' W 119°37'0 0.1
2018-Jul-12 17:00N 34°20' W 119°37'0 0.1
2018-Jul-12 16:22N 34°20' W 119°37'0 0.2
2018-Jul-12 15:53N 34°20' W 119°37'614.4
2018-Jul-12 15:29N 34°25' W 119°41'918.9
2018-Jul-12 15:00N 34°26' W 119°52'2 0.1
2018-Jul-11 23:11N 34°24' W 119°51'8 7.9
2018-Jul-11 22:14N 34°24' W 119°42'2 6.3
2018-Jul-11 21:54N 34°25' W 119°39'612.7
2018-Jul-11 21:28N 34°23' W 119°32'0 0.0
2018-Jul-11 20:56N 34°23' W 119°32'0 0.0
2018-Jul-11 20:26N 34°23' W 119°32'0 0.0
2018-Jul-11 19:31N 34°23' W 119°32'0 0.1
2018-Jul-11 19:26N 34°23' W 119°32'0 0.4
2018-Jul-11 18:53N 34°24' W 119°33'1538.3
2018-Jul-11 18:29N 34°24' W 119°51'155931.2
2018-Jul-11 18:29N 34°24' W 119°33'0 0.0
2018-Jul-11 17:53N 34°24' W 119°33'15182.8
2018-Jul-11 17:48N 34°24' W 119°51'1 2.2
2018-Jul-11 17:25N 34°25' W 119°50'14236.1
2018-Jul-11 17:21N 34°24' W 119°33'1643.9
2018-Jul-11 16:59N 34°24' W 119°52'165866.7
2018-Jul-11 16:59N 34°24' W 119°33'0 0.0
2018-Jul-11 16:28N 34°24' W 119°33'14314.0
2018-Jul-11 16:25N 34°25' W 119°50'717.1
2018-Jul-11 16:01N 34°24' W 119°41'7191.7
2018-Jul-11 15:58N 34°25' W 119°50'0 0.7
2018-Jul-11 15:28N 34°25' W 119°50'  

Dump ship's entire track history